createdAt,value
2018-01-23T00:02:18.917Z,101174.07
2018-01-23T00:04:47.560Z,101175.77
2018-01-23T00:07:16.011Z,101179.70
2018-01-23T00:09:45.111Z,101182.06
2018-01-23T00:12:13.796Z,101182.35
2018-01-23T00:14:42.411Z,101187.78
2018-01-23T00:17:11.044Z,101190.25
2018-01-23T00:19:39.652Z,101191.12
2018-01-23T00:22:08.370Z,101197.33
2018-01-23T00:24:36.864Z,101196.45
2018-01-23T00:27:05.525Z,101191.16
2018-01-23T00:29:33.961Z,101198.22
2018-01-23T00:32:02.414Z,101195.03
2018-01-23T00:34:31.129Z,101204.13
2018-01-23T00:36:59.556Z,101210.85
2018-01-23T00:39:27.990Z,101214.47
2018-01-23T00:41:56.485Z,101225.42
2018-01-23T00:44:24.950Z,101222.59
2018-01-23T00:46:53.468Z,101227.64
2018-01-23T00:49:22.052Z,101230.03
2018-01-23T00:51:50.593Z,101236.02
2018-01-23T00:54:19.195Z,101231.91
2018-01-23T00:56:47.785Z,101250.37
2018-01-23T00:59:17.290Z,101250.08
2018-01-23T01:01:45.772Z,101255.08
2018-01-23T01:04:14.428Z,101261.04
2018-01-23T01:06:43.042Z,101266.56
2018-01-23T01:09:11.623Z,101273.33
2018-01-23T01:11:40.648Z,101278.47
2018-01-23T01:14:09.303Z,101278.71
2018-01-23T01:16:37.911Z,101281.50
2018-01-23T01:19:06.696Z,101284.97
2018-01-23T01:21:35.117Z,101284.71
2018-01-23T01:24:03.551Z,101280.08
2018-01-23T01:26:32.010Z,101282.81
2018-01-23T01:29:00.456Z,101276.23
2018-01-23T01:31:28.874Z,101283.44
2018-01-23T01:33:57.349Z,101284.34
2018-01-23T01:36:25.768Z,101292.53
2018-01-23T01:38:54.176Z,101292.80
2018-01-23T01:41:22.689Z,101298.06
2018-01-23T01:43:51.135Z,101298.69
2018-01-23T01:46:19.585Z,101301.13
2018-01-23T01:48:53.946Z,101306.82
2018-01-23T01:51:22.377Z,101316.66
2018-01-23T01:53:50.814Z,101320.05
2018-01-23T01:56:19.383Z,101309.75
2018-01-23T01:58:47.916Z,101304.62
2018-01-23T02:01:16.684Z,101300.55
2018-01-23T02:03:45.328Z,101300.69
2018-01-23T02:06:13.810Z,101302.63
2018-01-23T02:08:42.336Z,101305.05
2018-01-23T02:11:10.838Z,101311.82
2018-01-23T02:13:39.567Z,101314.32
2018-01-23T02:16:08.081Z,101304.44
2018-01-23T02:18:36.615Z,101312.37
2018-01-23T02:21:05.073Z,101301.34
2018-01-23T02:23:33.496Z,101314.55
2018-01-23T02:26:02.058Z,101305.58
2018-01-23T02:28:30.484Z,101295.92
2018-01-23T02:30:58.914Z,101302.53
2018-01-23T02:33:27.393Z,101324.09
2018-01-23T02:35:55.869Z,101332.69
2018-01-23T02:38:24.356Z,101343.56
2018-01-23T02:40:52.816Z,101337.36
2018-01-23T02:43:21.467Z,101332.20
2018-01-23T02:45:50.036Z,101334.29
2018-01-23T02:48:18.687Z,101334.70
2018-01-23T02:50:47.270Z,101341.24
2018-01-23T02:53:15.786Z,101349.05
2018-01-23T02:55:44.342Z,101340.36
2018-01-23T02:58:12.810Z,101352.82
2018-01-23T03:00:41.392Z,101364.14
2018-01-23T03:03:10.278Z,101363.17
2018-01-23T03:05:39.309Z,101366.63
2018-01-23T03:08:08.502Z,101371.93
2018-01-23T03:10:37.157Z,101365.66
2018-01-23T03:13:05.601Z,101370.22
2018-01-23T03:15:34.036Z,101372.70
2018-01-23T03:18:02.524Z,101374.41
2018-01-23T03:20:30.926Z,101367.34
2018-01-23T03:22:59.364Z,101362.59
2018-01-23T03:25:27.836Z,101358.13
2018-01-23T03:27:56.334Z,101377.06
2018-01-23T03:30:25.523Z,101376.17
2018-01-23T03:32:54.226Z,101373.08
2018-01-23T03:35:22.732Z,101370.97
2018-01-23T03:37:51.235Z,101378.61
2018-01-23T03:40:19.918Z,101396.30
2018-01-23T03:42:48.370Z,101401.05
2018-01-23T03:45:16.913Z,101409.11
2018-01-23T03:47:45.398Z,101400.14
2018-01-23T03:50:13.869Z,101402.72
2018-01-23T03:52:42.345Z,101401.67
2018-01-23T03:55:11.049Z,101403.55
2018-01-23T03:57:39.560Z,101409.13
2018-01-23T04:00:08.036Z,101409.07
2018-01-23T04:02:36.516Z,101414.68
2018-01-23T04:05:05.737Z,101420.06
2018-01-23T04:07:34.168Z,101421.16
2018-01-23T04:10:02.681Z,101418.22
2018-01-23T04:12:31.100Z,101424.34
2018-01-23T04:14:59.519Z,101433.06
2018-01-23T04:17:28.265Z,101431.40
2018-01-23T04:19:56.716Z,101430.88
2018-01-23T04:22:25.126Z,101437.84
2018-01-23T04:24:53.626Z,101442.62
2018-01-23T04:27:22.391Z,101428.74
2018-01-23T04:29:50.904Z,101435.64
2018-01-23T04:32:19.352Z,101442.23
2018-01-23T04:34:47.906Z,101445.83
2018-01-23T04:37:16.422Z,101449.51
2018-01-23T04:39:45.000Z,101452.23
2018-01-23T04:42:14.231Z,101450.55
2018-01-23T04:44:42.778Z,101465.34
2018-01-23T04:47:11.363Z,101464.55
2018-01-23T04:49:39.845Z,101471.28
2018-01-23T04:52:09.144Z,101471.73
2018-01-23T04:54:37.830Z,101462.12
2018-01-23T04:57:06.286Z,101462.50
2018-01-23T04:59:34.717Z,101458.87
2018-01-23T05:02:03.200Z,101462.12
2018-01-23T05:04:31.627Z,101467.93
2018-01-23T05:07:00.154Z,101486.05
2018-01-23T05:09:28.653Z,101481.13
2018-01-23T05:11:57.258Z,101481.41
2018-01-23T05:14:25.674Z,101466.91
2018-01-23T05:16:54.192Z,101462.69
2018-01-23T05:19:22.769Z,101470.31
2018-01-23T05:21:51.226Z,101473.48
2018-01-23T05:24:19.742Z,101479.75
2018-01-23T05:26:48.288Z,101478.02
2018-01-23T05:29:16.804Z,101480.76
2018-01-23T05:31:45.454Z,101481.02
2018-01-23T05:34:13.943Z,101480.91
2018-01-23T05:36:42.454Z,101483.31
2018-01-23T05:39:11.080Z,101483.69
2018-01-23T05:41:39.618Z,101477.69
2018-01-23T05:44:08.044Z,101479.89
2018-01-23T05:46:36.631Z,101483.84
2018-01-23T05:49:05.072Z,101500.56
2018-01-23T05:51:33.492Z,101488.41
2018-01-23T05:54:01.965Z,101488.07
2018-01-23T05:56:30.395Z,101492.73
2018-01-23T05:58:58.853Z,101494.19
2018-01-23T06:01:27.343Z,101504.27
2018-01-23T06:03:55.790Z,101504.66
2018-01-23T06:06:24.609Z,101509.71
2018-01-23T06:08:53.124Z,101510.20
2018-01-23T06:11:23.820Z,101516.75
2018-01-23T06:13:52.541Z,101521.44
2018-01-23T06:16:21.294Z,101524.91
2018-01-23T06:18:49.831Z,101524.00
2018-01-23T06:21:18.525Z,101519.31
2018-01-23T06:23:47.114Z,101526.59
2018-01-23T06:26:15.758Z,101527.08
2018-01-23T06:28:44.270Z,101535.36
2018-01-23T06:31:12.825Z,101539.28
2018-01-23T06:33:41.435Z,101538.73
2018-01-23T06:36:10.195Z,101547.64
2018-01-23T06:38:39.175Z,101545.41
2018-01-23T06:41:09.197Z,101545.28
2018-01-23T06:43:38.743Z,101544.26
2018-01-23T06:46:07.204Z,101551.97
2018-01-23T06:48:35.673Z,101558.11
2018-01-23T06:51:04.729Z,101557.61
2018-01-23T06:53:33.289Z,101565.30
2018-01-23T06:56:01.766Z,101554.81
2018-01-23T06:58:30.227Z,101546.09
2018-01-23T07:00:58.729Z,101560.61
2018-01-23T07:03:27.187Z,101561.54
2018-01-23T07:05:55.647Z,101568.47
2018-01-23T07:08:24.222Z,101561.77
2018-01-23T07:10:52.842Z,101566.03
2018-01-23T07:13:21.499Z,101561.60
2018-01-23T07:15:49.949Z,101580.82
2018-01-23T07:18:18.438Z,101583.44
2018-01-23T07:20:46.949Z,101589.58
2018-01-23T07:23:15.488Z,101588.30
2018-01-23T07:25:44.036Z,101578.59
2018-01-23T07:28:12.569Z,101594.70
2018-01-23T07:30:41.590Z,101592.42
2018-01-23T07:33:10.074Z,101589.98
2018-01-23T07:35:38.521Z,101598.56
2018-01-23T07:38:07.004Z,101598.69
2018-01-23T07:40:35.412Z,101606.48
2018-01-23T07:43:03.893Z,101607.80
2018-01-23T07:45:32.520Z,101603.47
2018-01-23T07:48:00.956Z,101599.63
2018-01-23T07:50:29.374Z,101600.81
2018-01-23T07:52:57.851Z,101609.09
2018-01-23T07:55:26.364Z,101613.50
2018-01-23T07:57:54.776Z,101609.97
2018-01-23T08:00:23.384Z,101608.16
2018-01-23T08:02:51.840Z,101599.86
2018-01-23T08:05:20.318Z,101594.67
2018-01-23T08:07:49.052Z,101597.52
2018-01-23T08:10:17.557Z,101603.16
2018-01-23T08:12:46.087Z,101608.71
2018-01-23T08:15:14.654Z,101609.26
2018-01-23T08:17:43.105Z,101602.81
2018-01-23T08:20:12.100Z,101605.32
2018-01-23T08:22:41.117Z,101603.07
2018-01-23T08:25:09.804Z,101598.30
2018-01-23T08:27:39.181Z,101604.25
2018-01-23T08:30:08.068Z,101614.98
2018-01-23T08:32:36.552Z,101613.22
2018-01-23T08:35:04.994Z,101620.02
2018-01-23T08:37:33.513Z,101626.89
2018-01-23T08:40:01.968Z,101625.03
2018-01-23T08:42:30.396Z,101620.75
2018-01-23T08:44:58.890Z,101618.67
2018-01-23T08:47:27.361Z,101619.97
2018-01-23T08:49:55.782Z,101622.91
2018-01-23T08:52:24.725Z,101630.29
2018-01-23T08:54:53.373Z,101627.90
2018-01-23T08:57:21.900Z,101622.32
2018-01-23T08:59:50.813Z,101621.07
2018-01-23T09:02:19.408Z,101630.66
2018-01-23T09:04:47.955Z,101631.25
2018-01-23T09:07:17.912Z,101638.46
2018-01-23T09:09:46.431Z,101640.73
2018-01-23T09:12:14.930Z,101638.42
2018-01-23T09:14:43.789Z,101632.00
2018-01-23T09:17:12.253Z,101624.53
2018-01-23T09:19:40.840Z,101619.25
2018-01-23T09:22:10.655Z,101626.73
2018-01-23T09:24:39.154Z,101634.02
2018-01-23T09:27:07.672Z,101635.75
2018-01-23T09:29:36.220Z,101647.41
2018-01-23T09:32:04.675Z,101642.67
2018-01-23T09:34:33.157Z,101642.16
2018-01-23T09:37:02.082Z,101640.92
2018-01-23T09:39:30.556Z,101645.30
2018-01-23T09:41:59.033Z,101651.16
2018-01-23T09:44:27.821Z,101646.59
2018-01-23T09:46:56.243Z,101643.39
2018-01-23T09:49:24.680Z,101654.40
2018-01-23T09:51:53.316Z,101642.77
2018-01-23T09:54:21.863Z,101651.97
2018-01-23T09:56:50.554Z,101645.06
2018-01-23T09:59:19.125Z,101647.63
2018-01-23T10:01:47.670Z,101653.16
2018-01-23T10:04:16.191Z,101664.28
2018-01-23T10:06:45.179Z,101653.18
2018-01-23T10:09:13.650Z,101656.26
2018-01-23T10:11:42.270Z,101665.97
2018-01-23T10:14:11.226Z,101655.85
2018-01-23T10:16:39.750Z,101645.27
2018-01-23T10:19:08.433Z,101650.99
2018-01-23T10:21:37.016Z,101643.56
2018-01-23T10:24:05.697Z,101652.14
2018-01-23T10:26:34.180Z,101644.58
2018-01-23T10:29:02.878Z,101649.19
2018-01-23T10:31:31.496Z,101647.22
2018-01-23T10:34:00.044Z,101644.01
2018-01-23T10:36:28.557Z,101645.66
2018-01-23T10:38:57.607Z,101638.17
2018-01-23T10:41:26.038Z,101628.29
2018-01-23T10:43:54.524Z,101622.75
2018-01-23T10:46:23.059Z,101624.91
2018-01-23T10:48:51.626Z,101620.45
2018-01-23T10:51:20.524Z,101616.48
2018-01-23T10:53:50.060Z,101621.48
2018-01-23T10:56:18.919Z,101622.51
2018-01-23T10:58:48.391Z,101624.91
2018-01-23T11:01:17.007Z,101624.33
2018-01-23T11:03:45.770Z,101628.28
2018-01-23T11:06:14.565Z,101623.77
2018-01-23T11:08:44.533Z,101615.65
2018-01-23T11:11:13.225Z,101617.52
2018-01-23T11:13:41.866Z,101617.63
2018-01-23T11:16:10.737Z,101608.88
2018-01-23T11:18:39.442Z,101598.03
2018-01-23T11:21:07.972Z,101588.95
2018-01-23T11:23:36.463Z,101594.56
2018-01-23T11:26:04.998Z,101592.31
2018-01-23T11:28:33.614Z,101586.63
2018-01-23T11:31:02.209Z,101593.03
2018-01-23T11:33:30.650Z,101591.72
2018-01-23T11:35:59.151Z,101582.34
2018-01-23T11:38:27.885Z,101585.52
2018-01-23T11:40:56.370Z,101586.66
2018-01-23T11:43:25.055Z,101580.73
2018-01-23T11:45:53.504Z,101584.43
2018-01-23T11:48:22.077Z,101581.94
2018-01-23T11:50:51.007Z,101586.72
2018-01-23T11:53:19.490Z,101578.47
2018-01-23T11:55:48.035Z,101577.41
2018-01-23T11:58:16.736Z,101582.52
2018-01-23T12:00:46.328Z,101574.98
2018-01-23T12:03:14.867Z,101574.45
2018-01-23T12:05:43.634Z,101571.94
2018-01-23T12:08:12.236Z,101564.51
2018-01-23T12:10:41.281Z,101575.22
2018-01-23T12:13:09.894Z,101570.38
2018-01-23T12:15:38.372Z,101560.16
2018-01-23T12:18:07.023Z,101565.50
2018-01-23T12:20:35.543Z,101560.48
2018-01-23T12:23:04.018Z,101562.67
2018-01-23T12:25:33.571Z,101559.33
2018-01-23T12:28:02.517Z,101564.70
2018-01-23T12:30:30.995Z,101559.19
2018-01-23T12:33:10.815Z,101564.54
2018-01-23T12:35:39.429Z,101556.58
2018-01-23T12:38:08.059Z,101551.84
2018-01-23T12:40:36.564Z,101550.77
2018-01-23T12:43:05.120Z,101542.48
2018-01-23T12:45:33.596Z,101541.44
2018-01-23T12:48:02.179Z,101542.06
2018-01-23T12:50:30.643Z,101537.19
2018-01-23T12:52:59.099Z,101538.37
2018-01-23T12:55:28.539Z,101535.84
2018-01-23T12:57:56.947Z,101547.84
2018-01-23T13:00:26.121Z,101551.69
2018-01-23T13:02:54.852Z,101534.92
2018-01-23T13:05:23.387Z,101539.30
2018-01-23T13:07:52.076Z,101531.69
2018-01-23T13:10:21.088Z,101531.29
2018-01-23T13:12:49.618Z,101531.11
2018-01-23T13:15:18.126Z,101527.77
2018-01-23T13:17:46.752Z,101522.34
2018-01-23T13:20:15.651Z,101524.38
2018-01-23T13:22:44.318Z,101527.70
2018-01-23T13:25:13.278Z,101518.50
2018-01-23T13:27:42.518Z,101526.02
2018-01-23T13:30:11.478Z,101531.50
2018-01-23T13:32:40.055Z,101537.13
2018-01-23T13:35:08.528Z,101519.73
2018-01-23T13:37:37.083Z,101514.05
2018-01-23T13:40:05.644Z,101506.09
2018-01-23T13:42:34.277Z,101505.56
2018-01-23T13:45:02.715Z,101498.19
2018-01-23T13:47:31.216Z,101493.16
2018-01-23T13:50:00.029Z,101491.79
2018-01-23T13:52:28.515Z,101490.42
2018-01-23T13:54:57.498Z,101488.77
2018-01-23T13:57:26.083Z,101482.42
2018-01-23T13:59:54.655Z,101476.39
2018-01-23T14:02:23.194Z,101473.25
2018-01-23T14:04:51.736Z,101477.56
2018-01-23T14:07:21.239Z,101468.09
2018-01-23T14:09:49.981Z,101466.23
2018-01-23T14:12:19.069Z,101461.42
2018-01-23T14:14:47.752Z,101452.31
2018-01-23T14:17:16.305Z,101457.27
2018-01-23T14:19:45.391Z,101458.91
2018-01-23T14:22:14.190Z,101454.91
2018-01-23T14:24:42.856Z,101462.66
2018-01-23T14:27:11.464Z,101461.88
2018-01-23T14:29:40.344Z,101456.03
2018-01-23T14:32:09.015Z,101445.88
2018-01-23T14:34:37.823Z,101451.66
2018-01-23T14:37:06.615Z,101440.02
2018-01-23T14:39:35.298Z,101436.30
2018-01-23T14:42:03.862Z,101438.88
2018-01-23T14:44:32.325Z,101445.98
2018-01-23T14:47:00.841Z,101440.11
2018-01-23T14:49:29.299Z,101449.69
2018-01-23T14:51:57.793Z,101443.98
2018-01-23T14:54:26.374Z,101440.02
2018-01-23T14:56:54.948Z,101433.17
2018-01-23T14:59:23.545Z,101429.77
2018-01-23T15:01:52.098Z,101430.75
2018-01-23T15:04:20.696Z,101433.33
2018-01-23T15:06:50.313Z,101436.67
2018-01-23T15:09:20.151Z,101434.52
2018-01-23T15:11:48.820Z,101437.67
2018-01-23T15:14:17.658Z,101430.81
2018-01-23T15:16:46.855Z,101434.58
2018-01-23T15:19:15.317Z,101426.80
2018-01-23T15:21:43.974Z,101425.19
2018-01-23T15:24:12.581Z,101419.09
2018-01-23T15:26:41.143Z,101415.74
2018-01-23T15:29:10.568Z,101408.82
2018-01-23T15:31:39.092Z,101409.83
2018-01-23T15:34:07.573Z,101400.46
2018-01-23T15:36:36.010Z,101405.66
2018-01-23T15:39:04.950Z,101405.12
2018-01-23T15:41:33.546Z,101397.88
2018-01-23T15:44:02.234Z,101399.95
2018-01-23T15:46:30.897Z,101398.95
2018-01-23T15:48:59.680Z,101393.13
2018-01-23T15:51:28.298Z,101391.98
2018-01-23T15:53:56.930Z,101386.28
2018-01-23T15:56:25.511Z,101387.82
2018-01-23T15:58:53.966Z,101387.94
2018-01-23T16:01:22.805Z,101394.34
2018-01-23T16:03:51.284Z,101388.14
2018-01-23T16:06:19.777Z,101393.92
2018-01-23T16:08:48.329Z,101380.21
2018-01-23T16:11:16.863Z,101375.16
2018-01-23T16:13:45.337Z,101372.66
2018-01-23T16:16:14.206Z,101373.09
2018-01-23T16:18:43.049Z,101364.61
2018-01-23T16:21:12.009Z,101368.13
2018-01-23T16:23:40.721Z,101368.48
2018-01-23T16:26:09.735Z,101364.89
2018-01-23T16:28:38.418Z,101365.32
2018-01-23T16:31:07.218Z,101362.20
2018-01-23T16:33:35.725Z,101351.22
2018-01-23T16:36:04.484Z,101342.47
2018-01-23T16:38:33.135Z,101347.11
2018-01-23T16:41:01.803Z,101343.52
2018-01-23T16:43:30.397Z,101341.80
2018-01-23T16:45:59.587Z,101349.07
2018-01-23T16:48:28.188Z,101348.14
2018-01-23T16:50:56.653Z,101338.45
2018-01-23T16:53:27.509Z,101330.09
2018-01-23T16:55:55.941Z,101338.56
2018-01-23T16:58:24.417Z,101325.68
2018-01-23T17:00:52.930Z,101315.80
2018-01-23T17:03:21.391Z,101314.13
2018-01-23T17:05:50.034Z,101316.42
2018-01-23T17:08:20.250Z,101313.81
2018-01-23T17:10:48.899Z,101318.89
2018-01-23T17:13:17.407Z,101309.09
2018-01-23T17:15:46.528Z,101307.52
2018-01-23T17:18:15.680Z,101311.16
2018-01-23T17:20:45.218Z,101306.39
2018-01-23T17:23:13.799Z,101304.56
2018-01-23T17:25:42.587Z,101299.25
2018-01-23T17:28:12.917Z,101299.33
2018-01-23T17:30:41.823Z,101290.61
2018-01-23T17:33:11.345Z,101291.94
2018-01-23T17:35:39.909Z,101282.14
2018-01-23T17:38:12.190Z,101274.64
2018-01-23T17:40:41.096Z,101270.27
2018-01-23T17:43:09.815Z,101277.56
2018-01-23T17:45:38.286Z,101261.09
2018-01-23T17:48:06.903Z,101259.88
2018-01-23T17:50:35.337Z,101261.05
2018-01-23T17:53:03.881Z,101256.24
2018-01-23T17:55:32.535Z,101246.13
2018-01-23T17:58:01.627Z,101249.64
2018-01-23T18:00:36.932Z,101236.95
2018-01-23T18:03:06.260Z,101238.31
2018-01-23T18:05:34.881Z,101233.98
2018-01-23T18:08:04.300Z,101234.02
2018-01-23T18:10:33.429Z,101227.31
2018-01-23T18:13:01.862Z,101220.67
2018-01-23T18:15:30.617Z,101212.20
2018-01-23T18:17:59.056Z,101206.16
2018-01-23T18:20:27.689Z,101204.48
2018-01-23T18:22:56.169Z,101192.58
2018-01-23T18:27:52.243Z,101206.34
2018-01-23T18:30:20.730Z,101191.72
2018-01-23T18:32:49.231Z,101193.94
2018-01-23T18:35:17.714Z,101198.27
2018-01-23T18:37:46.359Z,101182.58
2018-01-23T18:40:18.223Z,101183.28
2018-01-23T18:42:48.580Z,101184.27
2018-01-23T18:45:17.168Z,101177.47
2018-01-23T18:47:46.530Z,101172.09
2018-01-23T18:50:15.074Z,101172.13
2018-01-23T18:52:44.897Z,101154.84
2018-01-23T18:55:16.697Z,101153.31
2018-01-23T18:57:46.125Z,101150.55
2018-01-23T19:00:14.640Z,101142.16
2018-01-23T19:02:47.672Z,101152.54
2018-01-23T19:05:17.569Z,101159.01
2018-01-23T19:07:46.209Z,101150.00
2018-01-23T19:10:15.821Z,101144.56
2018-01-23T19:12:44.402Z,101145.16
2018-01-23T19:15:14.106Z,101137.66
2018-01-23T19:17:42.695Z,101128.73
2018-01-23T19:20:11.537Z,101128.09
2018-01-23T19:22:41.783Z,101127.08
2018-01-23T19:25:10.645Z,101119.86
2018-01-23T19:27:39.385Z,101126.42
2018-01-23T19:30:07.821Z,101119.94
2018-01-23T19:32:37.337Z,101115.88
2018-01-23T19:35:05.811Z,101111.43
2018-01-23T19:37:34.978Z,101110.69
2018-01-23T19:40:03.793Z,101103.08
2018-01-23T19:45:07.160Z,101100.48
2018-01-23T19:47:36.743Z,101103.05
2018-01-23T19:50:05.544Z,101082.95
2018-01-23T19:52:34.142Z,101084.92
2018-01-23T19:55:02.817Z,101090.09
2018-01-23T19:57:31.353Z,101074.10
2018-01-23T20:00:00.017Z,101064.81
2018-01-23T20:02:30.948Z,101062.98
2018-01-23T20:04:59.555Z,101060.25
2018-01-23T20:07:28.394Z,101068.28
2018-01-23T20:09:57.084Z,101057.13
2018-01-23T20:12:25.627Z,101060.94
2018-01-23T20:14:55.071Z,101049.59
2018-01-23T20:17:24.897Z,101050.37
2018-01-23T20:19:54.773Z,101045.65
2018-01-23T20:22:23.413Z,101030.89
2018-01-23T20:24:52.209Z,101031.83
2018-01-23T20:27:20.952Z,101031.05
2018-01-23T20:29:50.113Z,101000.66
2018-01-23T20:32:19.444Z,101017.70
2018-01-23T20:34:48.853Z,101023.03
2018-01-23T20:37:18.583Z,101016.82
2018-01-23T20:39:51.241Z,101014.25
2018-01-23T20:42:20.173Z,101019.09
2018-01-23T20:44:48.642Z,101020.17
2018-01-23T20:47:17.325Z,101021.06
2018-01-23T20:49:48.791Z,101017.47
2018-01-23T20:52:17.493Z,101010.66
2018-01-23T20:54:46.223Z,101003.09
2018-01-23T20:57:14.746Z,100994.34
2018-01-23T20:59:43.375Z,101001.80
2018-01-23T21:02:12.071Z,100984.98
2018-01-23T21:04:41.085Z,100980.91
2018-01-23T21:07:09.611Z,100993.59
2018-01-23T21:09:39.084Z,100984.17
2018-01-23T21:12:07.796Z,100988.20
2018-01-23T21:14:36.477Z,100982.03
2018-01-23T21:17:05.010Z,100975.05
2018-01-23T21:19:33.715Z,100962.59
2018-01-23T21:22:02.132Z,100965.59
2018-01-23T21:24:30.640Z,100966.87
2018-01-23T21:26:59.374Z,100968.03
2018-01-23T21:29:28.182Z,100958.70
2018-01-23T21:31:57.121Z,100946.28
2018-01-23T21:34:25.822Z,100938.35
2018-01-23T21:36:54.256Z,100935.06
2018-01-23T21:39:22.677Z,100944.69
2018-01-23T21:41:51.279Z,100942.50
2018-01-23T21:44:19.743Z,100931.20
2018-01-23T21:46:48.486Z,100931.02
2018-01-23T21:49:17.042Z,100932.13
2018-01-23T21:51:45.620Z,100927.03
2018-01-23T21:54:14.194Z,100931.05
2018-01-23T21:56:42.797Z,100949.33
2018-01-23T21:59:11.493Z,100931.52
2018-01-23T22:01:45.795Z,100931.55
2018-01-23T22:04:14.418Z,100911.16
2018-01-23T22:06:42.955Z,100923.15
2018-01-23T22:09:11.765Z,100917.61
2018-01-23T22:11:40.435Z,100911.34
2018-01-23T22:14:09.060Z,100910.02
2018-01-23T22:16:37.549Z,100910.02
2018-01-23T22:19:07.617Z,100907.70
2018-01-23T22:21:36.948Z,100892.87
2018-01-23T22:24:05.526Z,100907.94
2018-01-23T22:26:33.985Z,100893.81
2018-01-23T22:29:02.484Z,100900.88
2018-01-23T22:31:30.995Z,100892.25
2018-01-23T22:33:59.410Z,100874.33
2018-01-23T22:36:27.878Z,100874.84
2018-01-23T22:38:56.557Z,100869.28
2018-01-23T22:41:24.986Z,100877.64
2018-01-23T22:43:53.398Z,100870.39
2018-01-23T22:46:21.854Z,100862.60
2018-01-23T22:48:50.333Z,100877.42
2018-01-23T22:51:18.912Z,100862.77
2018-01-23T22:53:47.579Z,100864.85
2018-01-23T22:56:16.218Z,100858.02
2018-01-23T22:58:48.273Z,100866.75
2018-01-23T23:01:16.891Z,100867.72
2018-01-23T23:03:45.490Z,100866.44
2018-01-23T23:06:14.282Z,100864.91
2018-01-23T23:08:42.864Z,100849.77
2018-01-23T23:11:11.605Z,100856.27
2018-01-23T23:13:40.235Z,100854.09
2018-01-23T23:16:08.699Z,100852.02
2018-01-23T23:18:37.174Z,100857.13
2018-01-23T23:21:05.634Z,100851.34
2018-01-23T23:23:34.054Z,100851.67
2018-01-23T23:26:02.529Z,100853.80
2018-01-23T23:28:31.378Z,100848.39
2018-01-23T23:30:59.865Z,100847.83
2018-01-23T23:33:28.273Z,100845.02
2018-01-23T23:35:56.957Z,100844.34
2018-01-23T23:38:25.453Z,100865.72
2018-01-23T23:40:54.025Z,100861.83
2018-01-23T23:43:22.505Z,100872.25
2018-01-23T23:45:50.991Z,100862.02
2018-01-23T23:48:19.471Z,100869.28
2018-01-23T23:50:48.244Z,100868.02
2018-01-23T23:53:16.751Z,100868.41
2018-01-23T23:55:45.345Z,100866.88
2018-01-23T23:58:14.246Z,100865.54
